Time;durP1;ratioP1;P1;durP2;ratioP2;P2;SDS_P1;SDS_P2;PMS_P1;PMS_P2;Temp;Humidity;BMP_temperature;BMP_pressure;BME280_temperature;BME280_humidity;BME280_pressure;Samples;Min_cycle;Max_cycle;Signal;HPM_P1;HPM_P2
2023/01/05 00:01:48;;;;;;;9.10;6.95;;;;;;;7.94;62.31;102302.70;1671818;85;21530;-58
2023/01/05 00:04:14;;;;;;;8.75;7.12;;;;;;;8.04;62.40;102301.09;1662203;85;21075;-57
2023/01/05 00:06:42;;;;;;;6.53;5.92;;;;;;;8.12;62.54;102300.34;1670968;85;21103;-57
2023/01/05 00:09:12;;;;;;;7.78;6.17;;;;;;;8.22;62.84;102293.58;1683438;84;21135;-57
2023/01/05 00:22:53;;;;;;;9.90;6.75;;;;;;;8.67;62.56;102304.51;1671303;85;21583;-57
2023/01/05 00:25:23;;;;;;;8.18;6.92;;;;;;;8.74;62.22;102300.23;1672941;84;21046;-57
2023/01/05 00:27:51;;;;;;;9.50;7.35;;;;;;;8.78;61.98;102298.98;1627306;86;21526;-57
2023/01/05 00:30:20;;;;;;;9.38;7.75;;;;;;;8.83;61.60;102292.55;1624226;86;21078;-57
2023/01/05 00:32:48;;;;;;;10.00;7.25;;;;;;;8.88;61.27;102286.53;1619359;86;21023;-57
2023/01/05 00:35:15;;;;;;;11.70;8.38;;;;;;;8.92;60.88;102290.05;1630012;86;21192;-57
2023/01/05 00:37:44;;;;;;;11.05;8.23;;;;;;;8.93;60.57;102280.09;1639829;86;21090;-58
2023/01/05 00:40:14;;;;;;;10.08;8.43;;;;;;;8.93;60.21;102268.41;1632762;86;21012;-58
2023/01/05 00:42:41;;;;;;;12.82;7.78;;;;;;;8.93;60.07;102271.00;1638621;85;21113;-57
2023/01/05 00:45:10;;;;;;;10.18;8.68;;;;;;;8.93;59.81;102264.52;1679743;83;21120;-57
2023/01/05 00:47:38;;;;;;;10.45;9.30;;;;;;;8.93;59.55;102263.22;1672951;83;21085;-57
2023/01/05 00:50:07;;;;;;;10.88;8.83;;;;;;;8.91;59.27;102256.72;1691871;83;21054;-58
2023/01/05 00:52:35;;;;;;;10.43;9.38;;;;;;;8.90;59.09;102258.02;1672188;84;21541;-58
2023/01/05 00:55:02;;;;;;;9.98;8.70;;;;;;;8.88;59.00;102246.75;1650820;84;21085;-57
2023/01/05 00:57:30;;;;;;;10.30;9.30;;;;;;;8.88;58.80;102240.26;1647350;85;21070;-58
2023/01/05 00:59:57;;;;;;;10.93;9.20;;;;;;;8.87;58.54;102232.02;1664294;84;21117;-57
2023/01/05 01:02:24;;;;;;;11.28;9.05;;;;;;;8.86;58.26;102228.99;1674363;83;21085;-58
2023/01/05 01:04:50;;;;;;;10.00;8.58;;;;;;;8.82;58.05;102228.53;1678348;83;21006;-57
2023/01/05 01:07:17;;;;;;;11.78;9.18;;;;;;;8.79;57.99;102222.00;1677892;84;21550;-57
2023/01/05 01:09:44;;;;;;;10.13;8.85;;;;;;;8.77;57.85;102214.62;1682074;84;21101;-57
2023/01/05 01:12:11;;;;;;;9.43;8.53;;;;;;;8.74;57.72;102209.39;1676898;84;21569;-58
2023/01/05 01:14:38;;;;;;;9.55;8.65;;;;;;;8.70;57.77;102208.92;1696471;83;21212;-57
2023/01/05 01:17:05;;;;;;;9.38;8.35;;;;;;;8.68;57.75;102202.85;1683232;83;21090;-57
2023/01/05 01:19:32;;;;;;;10.48;8.90;;;;;;;8.67;57.71;102190.75;1677702;84;21049;-57
2023/01/05 01:22:00;;;;;;;11.83;8.28;;;;;;;8.65;57.68;102192.47;1682801;84;21054;-57
2023/01/05 01:24:28;;;;;;;10.35;8.18;;;;;;;8.64;57.73;102182.92;1707273;81;21081;-57
2023/01/05 01:26:55;;;;;;;10.58;9.00;;;;;;;8.64;57.79;102181.63;1730636;81;21561;-57
2023/01/05 01:29:23;;;;;;;9.98;8.83;;;;;;;8.64;57.77;102177.73;1727693;82;21111;-57
2023/01/05 01:31:51;;;;;;;11.35;8.80;;;;;;;8.63;57.73;102180.78;1725364;82;21002;-57
2023/01/05 01:34:19;;;;;;;13.25;10.40;;;;;;;8.64;57.80;102179.03;1730179;82;21088;-57
2023/01/05 01:36:46;;;;;;;13.00;9.90;;;;;;;8.63;57.85;102173.42;1729961;82;21002;-57
2023/01/05 01:39:13;;;;;;;11.12;9.78;;;;;;;8.62;57.98;102161.28;1746220;81;21487;-57
2023/01/05 01:41:43;;;;;;;11.57;9.80;;;;;;;8.61;58.10;102154.38;1755492;81;21002;-57
2023/01/05 01:44:51;;;;;;;11.93;10.08;;;;;;;8.59;58.24;102126.25;1755069;80;21073;-57
2023/01/05 01:47:25;;;;;;;11.68;9.58;;;;;;;8.59;58.30;102106.80;1755257;80;21015;-57
2023/01/05 01:49:52;;;;;;;11.57;9.48;;;;;;;8.58;58.40;102077.80;1760547;80;20979;-57
2023/01/05 01:52:19;;;;;;;10.30;9.28;;;;;;;8.55;58.66;102057.88;1748901;81;20990;-57
2023/01/05 01:54:46;;;;;;;13.88;9.50;;;;;;;8.55;59.27;102044.07;1755828;81;21066;-57
2023/01/05 01:57:14;;;;;;;13.90;9.53;;;;;;;8.54;60.03;102039.72;1770250;80;21552;-57
2023/01/05 01:59:40;;;;;;;11.40;8.80;;;;;;;8.54;60.61;102035.83;1733949;80;21041;-57
2023/01/05 02:02:07;;;;;;;11.93;8.10;;;;;;;8.56;61.06;102031.09;1757882;80;21110;-57
2023/01/05 02:04:36;;;;;;;9.83;7.40;;;;;;;8.60;61.46;102019.87;1761465;80;21066;-57
2023/01/05 02:07:03;;;;;;;9.83;7.15;;;;;;;8.64;61.45;102024.23;1757055;80;21042;-58
2023/01/05 02:09:29;;;;;;;9.60;6.85;;;;;;;8.69;61.28;102013.89;1755031;80;21079;-57
2023/01/05 02:12:42;;;;;;;7.78;6.55;;;;;;;8.76;61.19;102019.53;1756721;80;21100;-57
2023/01/05 02:15:22;;;;;;;14.05;7.85;;;;;;;8.81;61.32;102032.12;1746629;80;21039;-57
2023/01/05 02:18:04;;;;;;;10.35;7.60;;;;;;;8.92;61.46;102038.25;1770630;80;21027;-58
2023/01/05 02:21:01;;;;;;;9.73;7.33;;;;;;;8.99;61.53;102017.93;1760427;80;21576;-57
2023/01/05 02:24:03;;;;;;;11.12;7.30;;;;;;;9.06;61.87;101998.94;1711941;83;21055;-57
2023/01/05 02:26:44;;;;;;;9.18;6.92;;;;;;;9.13;61.96;102001.98;1713466;83;21087;-57
2023/01/05 02:29:47;;;;;;;8.15;6.95;;;;;;;9.20;61.91;102015.44;1703844;83;21111;-57
2023/01/05 02:32:24;;;;;;;8.58;6.85;;;;;;;9.26;61.58;102008.96;1704048;83;21107;-57
2023/01/05 02:35:25;;;;;;;10.82;7.17;;;;;;;9.31;61.52;101985.19;1714227;83;21107;-57
2023/01/05 02:38:06;;;;;;;10.78;6.37;;;;;;;9.36;61.46;101982.15;1717872;83;21555;-57
2023/01/05 02:40:47;;;;;;;6.65;5.40;;;;;;;9.41;61.42;101973.95;1667534;84;21054;-57
2023/01/05 02:43:19;;;;;;;8.15;5.20;;;;;;;9.47;61.08;101966.17;1666274;84;21120;-57
2023/01/05 02:45:45;;;;;;;5.92;4.85;;;;;;;9.51;60.57;101957.94;1662955;85;21105;-57
2023/01/05 02:48:12;;;;;;;8.13;5.17;;;;;;;9.54;60.45;101947.11;1669679;85;21498;-57
2023/01/05 02:50:49;;;;;;;8.40;4.72;;;;;;;9.58;60.44;101950.14;1676440;84;21097;-57
2023/01/05 02:53:36;;;;;;;8.53;5.58;;;;;;;9.61;60.46;101941.49;1591830;88;21117;-57
2023/01/05 02:56:13;;;;;;;8.73;5.47;;;;;;;9.66;60.33;101943.25;1595448;89;21109;-57
2023/01/05 02:59:03;;;;;;;7.22;4.95;;;;;;;9.69;60.29;101932.84;1592788;89;21073;-57
2023/01/05 03:01:38;;;;;;;9.80;5.33;;;;;;;9.72;60.51;101918.56;1576511;90;21089;-57
2023/01/05 03:04:26;;;;;;;6.70;4.90;;;;;;;9.77;60.27;101917.23;1575226;90;21081;-57
2023/01/05 03:06:58;;;;;;;6.80;5.33;;;;;;;9.80;60.10;101917.25;1558060;91;21059;-57
2023/01/05 03:09:35;;;;;;;7.28;5.50;;;;;;;9.83;60.22;101901.64;1557985;91;21093;-57
2023/01/05 03:15:03;;;;;;;7.58;5.35;;;;;;;9.87;60.73;101888.22;1557071;92;21153;-57
2023/01/05 03:17:44;;;;;;;10.90;5.55;;;;;;;9.88;61.14;101862.22;1502582;94;21109;-57
2023/01/05 03:20:13;;;;;;;9.13;5.30;;;;;;;9.90;61.54;101865.68;1506760;94;21689;-57
2023/01/05 03:37:04;;;;;;;9.48;6.25;;;;;;;10.07;62.92;101829.25;1471151;96;21179;-57
2023/01/05 03:39:31;;;;;;;8.83;6.10;;;;;;;10.10;63.16;101830.13;1471890;95;21177;-57
2023/01/05 03:42:00;;;;;;;12.30;7.10;;;;;;;10.13;63.17;101824.94;1430436;98;21113;-57
2023/01/05 03:44:27;;;;;;;10.80;6.17;;;;;;;10.18;63.07;101831.42;1482587;95;21124;-57
2023/01/05 03:46:55;;;;;;;11.28;7.08;;;;;;;10.20;62.95;101827.09;1492950;95;21077;-57
2023/01/05 03:49:22;;;;;;;9.70;6.47;;;;;;;10.22;62.96;101830.55;1491606;90;21543;-57
2023/01/05 03:51:49;;;;;;;8.50;6.62;;;;;;;10.25;63.00;101827.92;1570728;90;21116;-57
2023/01/05 03:54:17;;;;;;;11.48;8.08;;;;;;;10.28;63.05;101824.02;1565171;88;21589;-57
2023/01/05 03:56:45;;;;;;;17.23;7.92;;;;;;;10.28;63.16;101811.86;1620262;87;21173;-57
2023/01/05 03:59:13;;;;;;;13.45;7.55;;;;;;;10.31;63.30;101814.89;1582667;89;21081;-57
2023/01/05 04:01:41;;;;;;;13.13;8.18;;;;;;;10.32;63.44;101821.41;1635752;86;21062;-57
2023/01/05 04:04:08;;;;;;;14.47;8.90;;;;;;;10.34;63.57;101827.90;1634639;86;21667;-57
2023/01/05 04:06:35;;;;;;;15.38;9.50;;;;;;;10.36;63.58;101833.96;1639393;86;21144;-57
2023/01/05 04:09:03;;;;;;;10.48;7.87;;;;;;;10.37;63.47;101829.17;1640556;86;21061;-57
2023/01/05 04:11:32;;;;;;;16.77;9.53;;;;;;;10.38;63.37;101811.41;1694846;83;21018;-57
2023/01/05 04:14:00;;;;;;;12.13;8.88;;;;;;;10.38;63.36;101804.91;1721200;83;21090;-57
2023/01/05 04:16:27;;;;;;;15.40;10.15;;;;;;;10.38;63.32;101803.59;1715369;83;21627;-57
2023/01/05 04:18:56;;;;;;;13.75;9.35;;;;;;;10.38;63.37;101797.97;1717650;83;21061;-58
2023/01/05 04:21:23;;;;;;;16.27;9.88;;;;;;;10.38;63.35;101791.89;1718009;83;21083;-57
2023/01/05 04:23:53;;;;;;;16.77;9.75;;;;;;;10.37;63.44;101782.34;1722558;83;21533;-57
2023/01/05 04:26:20;;;;;;;15.65;10.38;;;;;;;10.36;63.63;101769.80;1718007;83;21085;-58
2023/01/05 04:28:48;;;;;;;18.25;10.00;;;;;;;10.36;63.84;101780.62;1754634;80;21062;-57
2023/01/05 04:31:17;;;;;;;14.70;10.03;;;;;;;10.37;63.93;101774.53;1768492;80;21577;-58
2023/01/05 04:33:44;;;;;;;14.15;9.65;;;;;;;10.37;64.09;101765.43;1773114;80;21113;-58
2023/01/05 04:36:13;;;;;;;17.40;10.63;;;;;;;10.38;64.27;101765.87;1760656;80;21050;-58
2023/01/05 04:38:39;;;;;;;16.17;10.75;;;;;;;10.38;64.34;101765.45;1763196;80;21034;-57
2023/01/05 04:41:07;;;;;;;14.93;10.68;;;;;;;10.40;64.41;101762.83;1754481;80;21029;-57
2023/01/05 04:43:33;;;;;;;15.83;11.08;;;;;;;10.39;64.40;101772.79;1740178;81;21612;-58
2023/01/05 04:46:01;;;;;;;14.58;10.85;;;;;;;10.39;64.33;101762.38;1754570;82;21093;-57
2023/01/05 04:48:30;;;;;;;14.15;10.72;;;;;;;10.40;64.16;101770.63;1754079;82;21006;-57
2023/01/05 04:50:57;;;;;;;12.20;10.35;;;;;;;10.38;64.00;101762.84;1753870;82;21018;-57
2023/01/05 04:53:27;;;;;;;14.15;10.80;;;;;;;10.36;63.88;101759.39;1647446;87;21082;-57
2023/01/05 04:55:55;;;;;;;12.98;11.40;;;;;;;10.34;63.72;101760.26;1615187;89;21059;-57
2023/01/05 04:58:22;;;;;;;13.40;11.05;;;;;;;10.29;63.65;101756.38;1615368;89;21106;-58
2023/01/05 05:00:50;;;;;;;15.70;12.05;;;;;;;10.27;63.60;101754.21;1599850;90;21041;-57
2023/01/05 05:03:17;;;;;;;15.23;11.35;;;;;;;10.25;63.56;101749.88;1599617;90;21247;-58
2023/01/05 05:05:44;;;;;;;14.53;11.78;;;;;;;10.24;63.54;101732.56;1609853;89;21107;-58
2023/01/05 05:08:12;;;;;;;17.42;12.40;;;;;;;10.22;63.35;101723.45;1599669;90;21630;-58
2023/01/05 05:10:41;;;;;;;16.73;12.10;;;;;;;10.20;63.30;101728.25;1598934;90;21575;-57
2023/01/05 05:13:08;;;;;;;14.50;11.85;;;;;;;10.17;63.28;101717.84;1615295;89;21122;-57
2023/01/05 05:15:36;;;;;;;15.55;11.93;;;;;;;10.16;63.20;101710.94;1627209;87;21019;-57
2023/01/05 05:18:03;;;;;;;14.87;11.63;;;;;;;10.15;63.23;101703.98;1663425;85;21090;-58
2023/01/05 05:20:33;;;;;;;14.45;11.63;;;;;;;10.14;63.22;101698.37;1661837;85;21558;-57
2023/01/05 05:23:00;;;;;;;14.55;12.20;;;;;;;10.12;63.21;101699.66;1636850;86;21054;-57
2023/01/05 05:25:27;;;;;;;15.55;13.30;;;;;;;10.12;63.25;101702.26;1658611;86;21526;-58
2023/01/05 05:27:56;;;;;;;15.98;12.10;;;;;;;10.10;63.38;101691.00;1660661;85;21114;-57
2023/01/05 05:30:23;;;;;;;19.70;12.63;;;;;;;10.11;63.39;101695.77;1655668;85;21114;-57
2023/01/05 05:32:49;;;;;;;17.32;13.40;;;;;;;10.11;63.44;101697.08;1665565;85;21071;-58
2023/01/05 05:35:17;;;;;;;19.27;13.98;;;;;;;10.10;63.39;101690.13;1660309;85;21058;-57
2023/01/05 05:37:44;;;;;;;14.35;12.78;;;;;;;10.10;63.41;101692.73;1667224;85;21042;-57
2023/01/05 05:40:11;;;;;;;15.85;12.73;;;;;;;10.09;63.36;101683.18;1644338;86;21037;-57
2023/01/05 05:42:38;;;;;;;17.45;13.72;;;;;;;10.08;63.33;101691.84;1658496;85;21021;-57
2023/01/05 05:45:06;;;;;;;18.27;13.48;;;;;;;10.08;63.34;101698.34;1658119;85;21100;-57
2023/01/05 05:47:33;;;;;;;14.68;12.43;;;;;;;10.09;63.26;101694.88;1660660;85;21048;-57
2023/01/05 05:50:00;;;;;;;18.90;13.50;;;;;;;10.11;63.31;101682.77;1700268;80;21090;-58
2023/01/05 05:52:26;;;;;;;17.75;13.45;;;;;;;10.11;63.34;101682.34;1746498;80;21519;-57
2023/01/05 05:54:53;;;;;;;17.27;13.50;;;;;;;10.12;63.22;101672.34;1749040;80;21021;-57
2023/01/05 05:57:19;;;;;;;15.13;13.20;;;;;;;10.11;63.26;101665.44;1767515;80;21032;-57
2023/01/05 05:59:46;;;;;;;17.90;13.70;;;;;;;10.11;63.30;101668.47;1755346;81;21043;-57
2023/01/05 06:02:13;;;;;;;15.78;12.98;;;;;;;10.11;63.40;101659.36;1754814;80;21462;-58
2023/01/05 06:04:39;;;;;;;14.65;12.73;;;;;;;10.10;63.42;101658.49;1771701;80;21525;-57
2023/01/05 06:07:06;;;;;;;19.50;14.03;;;;;;;10.10;63.45;101651.98;1757060;80;21066;-57
2023/01/05 06:09:32;;;;;;;18.95;13.93;;;;;;;10.11;63.49;101655.47;1762543;80;21594;-58
2023/01/05 06:11:59;;;;;;;17.60;14.53;;;;;;;10.13;63.47;101664.13;1754993;80;21550;-57
2023/01/05 06:14:26;;;;;;;18.35;14.45;;;;;;;10.14;63.47;101660.20;1761268;80;21078;-57
2023/01/05 06:16:52;;;;;;;17.65;12.82;;;;;;;10.15;63.43;101658.47;1754585;80;21046;-57
2023/01/05 06:19:19;;;;;;;17.65;13.60;;;;;;;10.14;63.45;101664.11;1757807;81;21084;-57
2023/01/05 06:21:46;;;;;;;19.00;15.45;;;;;;;10.13;63.48;101660.22;1757685;80;21667;-57
2023/01/05 06:24:13;;;;;;;17.87;13.45;;;;;;;10.15;63.51;101661.08;1765295;80;21030;-57
2023/01/05 06:26:39;;;;;;;17.50;13.40;;;;;;;10.16;63.42;101669.32;1747242;80;21021;-57
2023/01/05 06:29:06;;;;;;;19.87;15.50;;;;;;;10.15;63.58;101662.38;1758732;80;21031;-57
2023/01/05 06:31:33;;;;;;;18.45;14.73;;;;;;;10.15;63.60;101661.08;1768084;80;21065;-57
2023/01/05 06:33:59;;;;;;;17.25;14.55;;;;;;;10.15;63.65;101646.77;1752427;81;21061;-57
2023/01/05 06:36:26;;;;;;;19.23;14.50;;;;;;;10.14;63.76;101639.39;1762948;80;21672;-57
2023/01/05 06:38:53;;;;;;;18.50;15.00;;;;;;;10.16;63.76;101642.02;1754110;80;21050;-57
2023/01/05 06:41:19;;;;;;;19.40;14.93;;;;;;;10.16;63.74;101627.70;1754954;80;21085;-57
2023/01/05 06:43:46;;;;;;;21.17;15.15;;;;;;;10.15;63.78;101619.47;1757318;80;21109;-57
2023/01/05 06:46:12;;;;;;;20.30;14.70;;;;;;;10.14;63.70;101621.66;1775211;80;21040;-57
2023/01/05 06:48:39;;;;;;;18.67;14.80;;;;;;;10.13;63.62;101614.71;1780633;80;21556;-57
2023/01/05 06:51:06;;;;;;;19.45;14.68;;;;;;;10.13;63.54;101622.52;1753758;80;21529;-57
2023/01/05 06:53:33;;;;;;;17.27;14.55;;;;;;;10.13;63.32;101617.31;1759106;80;21038;-57
2023/01/05 06:56:00;;;;;;;19.02;15.50;;;;;;;10.12;63.14;101624.24;1762985;80;21125;-57
2023/01/05 06:58:26;;;;;;;17.57;14.90;;;;;;;10.13;63.03;101619.91;1754039;80;21537;-57
2023/01/05 07:00:53;;;;;;;18.70;14.85;;;;;;;10.14;62.98;101617.29;1754567;80;21023;-57
2023/01/05 07:03:22;;;;;;;18.10;15.43;;;;;;;10.17;62.85;101615.11;1758801;80;21573;-57
2023/01/05 07:05:51;;;;;;;20.75;15.03;;;;;;;10.19;62.78;101606.86;1760608;80;21026;-57
2023/01/05 07:08:17;;;;;;;18.10;14.30;;;;;;;10.22;62.77;101617.27;1759236;80;21002;-57
2023/01/05 07:10:44;;;;;;;19.25;15.25;;;;;;;10.23;62.73;101613.77;1768399;80;21038;-58
2023/01/05 07:13:10;;;;;;;20.35;16.45;;;;;;;10.28;62.62;101609.42;1760776;80;21109;-57
2023/01/05 07:15:37;;;;;;;17.85;14.60;;;;;;;10.28;62.50;101599.02;1767535;80;21085;-57
2023/01/05 07:18:05;;;;;;;19.17;16.40;;;;;;;10.30;62.29;101592.06;1752681;80;21053;-57
2023/01/05 07:20:31;;;;;;;17.87;14.75;;;;;;;10.33;61.97;101594.62;1755252;80;21078;-57
2023/01/05 07:22:58;;;;;;;19.77;15.15;;;;;;;10.33;61.78;101579.02;1759709;81;21042;-57
2023/01/05 07:25:30;;;;;;;20.77;16.87;;;;;;;10.34;61.64;101572.95;1763446;80;21553;-57
2023/01/05 07:27:53;;;;;;;16.95;15.08;;;;;;;10.34;61.59;101572.95;1747579;80;21597;-57
2023/01/05 07:30:20;;;;;;;16.93;14.35;;;;;;;10.34;61.47;101563.84;1754906;80;21126;-57
2023/01/05 07:32:46;;;;;;;20.15;15.30;;;;;;;10.35;61.39;101566.86;1768400;80;21520;-59
2023/01/05 07:35:13;;;;;;;21.12;14.63;;;;;;;10.35;61.28;101568.16;1757408;80;20994;-57
2023/01/05 07:37:42;;;;;;;17.40;14.80;;;;;;;10.35;61.11;101564.26;1773463;80;21058;-57
2023/01/05 07:40:10;;;;;;;20.08;15.20;;;;;;;10.32;61.04;101558.66;1772357;80;21623;-57
2023/01/05 07:42:37;;;;;;;17.95;16.00;;;;;;;10.31;61.03;101556.05;1767635;80;21535;-57
2023/01/05 07:45:06;;;;;;;19.15;16.27;;;;;;;10.28;61.18;101557.39;1743815;81;21482;-57
2023/01/05 07:47:32;;;;;;;18.40;16.15;;;;;;;10.27;61.19;101556.52;1770693;80;21007;-57
2023/01/05 07:49:59;;;;;;;20.12;16.00;;;;;;;10.28;61.21;101554.80;1769864;80;21077;-57
2023/01/05 07:52:29;;;;;;;19.27;16.70;;;;;;;10.32;61.16;101553.89;1751135;80;21093;-58
2023/01/05 07:54:57;;;;;;;17.62;15.65;;;;;;;10.34;61.08;101549.11;1756654;81;20958;-57
2023/01/05 07:57:23;;;;;;;21.93;16.00;;;;;;;10.39;60.94;101549.05;1755154;80;21051;-57
2023/01/05 07:59:50;;;;;;;19.20;16.35;;;;;;;10.32;61.07;101544.79;1765918;80;21078;-57
2023/01/05 08:02:19;;;;;;;19.65;16.77;;;;;;;10.26;61.29;101542.23;1783927;80;21030;-58
2023/01/05 08:04:46;;;;;;;19.50;15.88;;;;;;;10.24;61.25;101534.42;1759733;80;21074;-57
2023/01/05 08:07:14;;;;;;;21.60;16.77;;;;;;;10.23;61.23;101534.44;1750085;81;21082;-57
2023/01/05 08:12:28;;;;;;;20.00;16.70;;;;;;;10.19;61.42;101531.02;1761349;80;21034;-57
2023/01/05 08:14:55;;;;;;;20.57;17.25;;;;;;;10.21;61.56;101519.29;1750210;80;21030;-57
2023/01/05 08:17:22;;;;;;;19.75;16.45;;;;;;;10.21;61.56;101527.96;1754511;80;21025;-57
2023/01/05 08:19:48;;;;;;;18.48;16.35;;;;;;;10.24;61.63;101536.19;1750060;80;21068;-57
2023/01/05 08:22:15;;;;;;;22.15;17.07;;;;;;;10.27;61.68;101525.73;1747310;80;21572;-58
2023/01/05 08:24:42;;;;;;;22.50;17.82;;;;;;;10.31;61.56;101514.43;1754024;80;21035;-57
2023/01/05 08:27:08;;;;;;;20.20;16.23;;;;;;;10.33;61.58;101510.08;1752135;80;21030;-57
2023/01/05 08:29:35;;;;;;;19.25;16.37;;;;;;;10.35;61.52;101507.89;1760833;80;21027;-57
2023/01/05 08:32:02;;;;;;;21.82;16.52;;;;;;;10.37;61.57;101503.54;1752728;80;21503;-57
2023/01/05 08:34:28;;;;;;;23.27;16.35;;;;;;;10.40;61.60;101492.25;1760921;80;21557;-57
2023/01/05 08:36:55;;;;;;;19.82;15.43;;;;;;;10.44;61.60;101489.61;1753063;80;21109;-57
2023/01/05 08:39:22;;;;;;;20.43;15.35;;;;;;;10.47;61.49;101475.69;1754266;80;21039;-57
2023/01/05 08:41:48;;;;;;;20.40;16.15;;;;;;;10.51;61.50;101477.37;1757138;80;21070;-57
2023/01/05 08:44:15;;;;;;;21.73;16.48;;;;;;;10.50;61.49;101454.85;1737559;80;21046;-57
2023/01/05 08:46:41;;;;;;;20.97;17.07;;;;;;;10.53;61.56;101455.67;1771493;80;21087;-57
2023/01/05 08:49:09;;;;;;;18.55;15.40;;;;;;;10.56;61.62;101452.19;1756902;80;21101;-57
2023/01/05 08:51:36;;;;;;;21.93;16.42;;;;;;;10.58;61.80;101442.63;1767464;80;20979;-57
2023/01/05 08:54:04;;;;;;;18.00;14.98;;;;;;;10.60;61.93;101422.64;1759809;80;21057;-57
2023/01/05 08:56:32;;;;;;;19.75;15.83;;;;;;;10.64;61.78;101423.03;1766368;80;20996;-57
2023/01/05 08:58:59;;;;;;;22.27;16.60;;;;;;;10.65;61.83;101416.97;1755471;81;21034;-57
2023/01/05 09:01:26;;;;;;;18.32;15.25;;;;;;;10.67;61.96;101413.91;1760851;80;21085;-57
2023/01/05 09:03:52;;;;;;;19.07;15.30;;;;;;;10.71;61.79;101417.33;1754807;80;20999;-57
2023/01/05 09:06:19;;;;;;;18.75;15.00;;;;;;;10.73;61.65;101421.64;1756232;80;21033;-57
2023/01/05 09:08:47;;;;;;;20.40;16.50;;;;;;;10.76;61.45;101404.66;1760656;80;21022;-57
2023/01/05 09:11:19;;;;;;;18.75;15.38;;;;;;;10.63;61.70;101392.70;1759734;80;21017;-58
2023/01/05 09:13:51;;;;;;;18.62;15.80;;;;;;;10.56;62.00;101391.03;1753530;80;21078;-57
2023/01/05 09:16:21;;;;;;;19.85;16.02;;;;;;;10.57;62.00;101392.31;1755858;80;21525;-57
2023/01/05 09:18:48;;;;;;;18.12;15.48;;;;;;;10.59;61.84;101377.53;1763220;80;21073;-57
2023/01/05 09:21:14;;;;;;;20.97;15.78;;;;;;;10.79;61.31;101379.91;1755795;80;21023;-57
2023/01/05 09:23:41;;;;;;;19.52;16.50;;;;;;;10.87;61.05;101367.66;1764117;80;21030;-57
2023/01/05 09:26:10;;;;;;;18.82;15.83;;;;;;;10.89;60.84;101360.69;1769882;80;21529;-57
2023/01/05 09:28:37;;;;;;;19.60;15.45;;;;;;;10.90;60.74;101361.09;1765383;80;21050;-57
2023/01/05 09:31:10;;;;;;;20.08;16.70;;;;;;;10.92;60.73;101351.51;1758994;80;21534;-58
2023/01/05 09:33:38;;;;;;;21.45;16.50;;;;;;;10.95;60.69;101346.71;1730890;82;21055;-57
2023/01/05 09:36:06;;;;;;;21.20;16.67;;;;;;;10.97;60.73;101344.52;1732330;82;21073;-57
2023/01/05 09:38:35;;;;;;;20.12;16.60;;;;;;;10.99;60.58;101342.75;1730034;81;21193;-57
2023/01/05 09:41:30;;;;;;;22.32;17.45;;;;;;;11.00;60.44;101340.58;1724301;81;21051;-57
2023/01/05 09:44:13;;;;;;;21.93;17.32;;;;;;;11.03;60.47;101342.25;1735680;81;21038;-57
2023/01/05 09:46:42;;;;;;;18.60;15.72;;;;;;;11.07;60.40;101330.91;1745856;82;21549;-57
2023/01/05 09:49:13;;;;;;;20.88;15.78;;;;;;;11.14;60.26;101327.34;1735992;81;21096;-57
2023/01/05 09:51:40;;;;;;;18.42;16.25;;;;;;;11.18;60.10;101323.38;1726961;81;21001;-57
2023/01/05 09:54:13;;;;;;;22.30;15.65;;;;;;;11.23;59.95;101330.66;1727889;81;21071;-57
2023/01/05 09:56:40;;;;;;;17.35;15.13;;;;;;;11.25;59.80;101310.66;1702601;83;21074;-57
2023/01/05 09:59:24;;;;;;;19.98;16.02;;;;;;;11.31;59.76;101318.37;1696163;83;21052;-57
2023/01/05 10:01:51;;;;;;;20.23;16.10;;;;;;;11.36;59.56;101308.75;1704417;83;21069;-57
2023/01/05 10:04:22;;;;;;;18.20;15.55;;;;;;;11.43;59.37;101318.20;1702825;83;21045;-57
2023/01/05 10:06:52;;;;;;;19.97;16.03;;;;;;;11.48;58.95;101301.63;1685760;84;21026;-57
2023/01/05 10:09:26;;;;;;;20.97;16.90;;;;;;;11.51;58.74;101298.95;1708974;83;21094;-57
2023/01/05 10:14:57;;;;;;;19.95;16.30;;;;;;;11.57;58.37;101272.78;1703632;83;21562;-57
2023/01/05 10:17:23;;;;;;;18.82;16.07;;;;;;;11.58;58.27;101277.96;1701657;83;21557;-57
2023/01/05 10:19:52;;;;;;;21.90;17.30;;;;;;;11.59;58.32;101273.18;1674942;83;21600;-57
2023/01/05 10:22:39;;;;;;;20.35;17.17;;;;;;;11.62;58.33;101284.01;1701420;83;21125;-57
2023/01/05 10:25:15;;;;;;;21.42;17.57;;;;;;;11.63;58.27;101275.28;1701451;83;21167;-57
2023/01/05 10:27:51;;;;;;;19.10;16.87;;;;;;;11.67;58.16;101263.95;1705327;83;21512;-57
2023/01/05 10:30:57;;;;;;;19.37;16.42;;;;;;;11.65;58.16;101263.08;1704225;83;21109;-57
2023/01/05 10:33:51;;;;;;;20.05;16.85;;;;;;;11.64;58.28;101248.34;1709520;83;21077;-57
2023/01/05 10:36:32;;;;;;;18.62;15.85;;;;;;;11.67;58.40;101237.88;1713601;81;21049;-57
2023/01/05 10:39:24;;;;;;;19.55;16.02;;;;;;;11.70;58.38;101227.41;1728743;81;21594;-57
2023/01/05 10:42:22;;;;;;;19.35;16.42;;;;;;;11.73;58.32;101227.34;1726344;82;21257;-57
2023/01/05 10:44:58;;;;;;;19.10;16.17;;;;;;;11.78;58.45;101222.91;1655653;85;21066;-57
2023/01/05 10:47:26;;;;;;;19.82;16.82;;;;;;;11.84;58.35;101221.05;1654222;85;21083;-57
2023/01/05 10:49:53;;;;;;;19.35;16.20;;;;;;;11.88;57.96;101222.70;1648084;85;21591;-57
2023/01/05 10:52:21;;;;;;;18.60;16.50;;;;;;;11.91;57.84;101226.53;1659275;85;21066;-57
2023/01/05 10:54:55;;;;;;;19.37;16.75;;;;;;;11.95;57.73;101207.33;1671971;84;21073;-57
2023/01/05 10:57:31;;;;;;;20.17;16.95;;;;;;;12.02;57.52;101201.55;1648292;86;21090;-57
2023/01/05 11:00:09;;;;;;;18.92;16.10;;;;;;;12.07;57.29;101197.11;1671681;85;21067;-57
2023/01/05 11:02:39;;;;;;;20.37;16.70;;;;;;;12.11;56.90;101176.59;1692483;84;21546;-57
2023/01/05 11:05:17;;;;;;;19.32;16.57;;;;;;;12.12;56.75;101170.47;1679799;84;21058;-57
2023/01/05 11:07:53;;;;;;;20.77;16.60;;;;;;;12.12;56.71;101156.98;1685574;84;21062;-57
2023/01/05 11:10:28;;;;;;;19.70;16.70;;;;;;;12.12;56.65;101160.03;1603900;88;21072;-57
2023/01/05 13:06:06;;;;;;;25.88;21.10;;;;;;;8.55;74.08;101053.18;1796896;78;27232;-57
2023/01/05 13:08:51;;;;;;;24.23;19.52;;;;;;;9.69;68.60;101049.28;1756282;80;21583;-57
2023/01/05 13:11:38;;;;;;;28.00;21.73;;;;;;;10.00;67.10;101043.64;1749280;80;21041;-57
2023/01/05 13:14:19;;;;;;;27.00;21.00;;;;;;;10.10;66.75;101036.16;1752454;80;21096;-57
2023/01/05 13:17:00;;;;;;;25.62;21.25;;;;;;;10.17;66.73;101028.69;1752608;81;21074;-57
2023/01/05 13:19:48;;;;;;;24.37;20.48;;;;;;;10.25;66.70;101024.22;1757002;80;21042;-58
2023/01/05 13:22:25;;;;;;;27.07;21.23;;;;;;;10.30;66.70;101002.92;1702162;83;21044;-58
2023/01/05 13:24:59;;;;;;;25.65;20.30;;;;;;;10.39;66.68;100998.84;1680310;83;21053;-57
2023/01/05 13:27:28;;;;;;;27.82;20.80;;;;;;;10.45;66.53;100980.52;1700633;83;21063;-58
2023/01/05 13:29:58;;;;;;;26.35;20.55;;;;;;;10.53;66.45;100989.08;1708303;83;21062;-58
2023/01/05 13:32:50;;;;;;;23.25;19.30;;;;;;;10.60;66.23;100982.86;1701055;82;21584;-58
2023/01/05 13:35:43;;;;;;;26.30;19.42;;;;;;;10.64;66.14;100979.31;1700377;83;21017;-58
2023/01/05 13:38:32;;;;;;;24.23;20.43;;;;;;;10.71;66.11;100982.67;1710119;83;21605;-58
2023/01/05 13:41:25;;;;;;;24.75;21.10;;;;;;;10.77;66.00;100973.01;1694991;83;21080;-58
2023/01/05 13:44:22;;;;;;;25.45;20.57;;;;;;;10.84;65.89;100977.19;1689029;84;21066;-58
2023/01/05 13:47:15;;;;;;;27.05;20.77;;;;;;;10.89;65.77;100975.37;1664762;84;21536;-58
2023/01/05 13:50:30;;;;;;;23.00;19.35;;;;;;;10.94;65.53;100974.81;1589046;89;21105;-57
2023/01/05 13:53:17;;;;;;;23.98;19.20;;;;;;;10.99;65.44;100970.39;1570453;89;21070;-58
2023/01/05 13:55:53;;;;;;;22.15;19.00;;;;;;;11.02;65.26;100984.66;1623092;87;21085;-58
2023/01/05 13:58:48;;;;;;;23.85;19.27;;;;;;;11.04;65.05;100995.91;1621240;87;21015;-58
2023/01/05 14:01:37;;;;;;;21.75;18.42;;;;;;;11.05;64.96;100972.87;1604461;87;21514;-57